Flight Track Log - Related Links

Times and Time Zones

All times are in EDT time to prevent confusion due to time zone crossing. See the AAL1491 flight status page for this flight to view local times or setup timezone preferences in your user account.

Time Position Orientation Groundspeed Altitude Reporting Facility
EDT Latitude Longitude Course Direction KTS MPH feet Rate Location/Type
Fri 11:30:44 AM 38.8667 -77.0333 270° West 159 183 900  Level Potomac TRACON
Fri 11:31:44 AM 38.9000 -77.0833 311° West 181 208 3,100 2,400 Climbing Potomac TRACON
Fri 11:32:44 AM 38.9500 -77.1333 322° Northwest 237 273 5,700 2,850 Climbing Potomac TRACON
Fri 11:33:00 AM 38.8500 -77.4318 270° West  Level FlightAware Approximate
Fri 11:33:44 AM 39.0000 -77.2167 308° West 262 302 8,800  Level Potomac TRACON
Fri 11:34:00 AM 38.8500 -77.5646 270° West  Level FlightAware Approximate
Fri 11:35:00 AM 38.8500 -77.6974 270° West  Level FlightAware Approximate
Fri 11:35:16 AM 38.9797 -77.3619 260° West 301 346 11,900  Level Washington Center
Fri 11:36:00 AM 38.8502 -77.8303 270° West  Level FlightAware Approximate
Fri 11:36:14 AM 38.9633 -77.4736 259° West 320 368 14,600  Level Washington Center
Fri 11:37:14 AM 38.9492 -77.5828 261° West 337 388 17,000 2,331 Climbing Washington Center
Fri 11:38:15 AM 38.9300 -77.7211 260° West 360 414 19,300 2,231 Climbing Washington Center
Fri 11:39:15 AM 38.9111 -77.8406 259° West 374 430 21,500 2,033 Climbing Washington Center
Fri 11:40:16 AM 38.8900 -77.9706 258° West 374 430 23,400 1,613 Climbing Washington Center
Fri 11:41:14 AM 38.8706 -78.1033 259° West 379 436 24,700 1,613 Climbing Washington Center
Fri 11:42:15 AM 38.8528 -78.2467 261° West 397 457 26,600 2,281 Climbing Washington Center
Fri 11:43:15 AM 38.8517 -78.3878 269° West 402 463 29,300 1,785 Climbing Washington Center
Fri 11:44:16 AM 38.8403 -78.5233 264° West 402 463 30,200 595 Climbing Washington Center
Fri 11:45:16 AM 38.8219 -78.6664 261° West 401 461 30,500 661 Climbing Washington Center
Fri 11:46:14 AM 38.8014 -78.8150 260° West 414 476 31,500 1,160 Climbing Washington Center
Fri 11:47:15 AM 38.7808 -78.9606 260° West 421 484 32,800 942 Climbing Washington Center
Fri 11:48:15 AM 38.7597 -79.1139 260° West 428 493 33,400 857 Climbing Washington Center
Fri 11:49:14 AM 38.7378 -79.2911 261° West 452 520 34,500 1,059 Climbing Washington Center
Fri 11:50:14 AM 38.7142 -79.4417 259° West 452 520 35,500 1,050 Climbing Washington Center
Fri 11:51:14 AM 38.6925 -79.5947 260° West 446 513 36,600 1,041 Climbing Washington Center
Fri 11:52:15 AM 38.6708 -79.7425 259° West 441 507 37,600 582 Climbing Washington Center
Fri 11:53:28 AM 38.6425 -79.9033 257° West 424 488 37,900 178 Climbing Indianapolis Center
Fri 11:54:30 AM 38.6203 -80.0525 259° West 426 490 38,000 48 Climbing Indianapolis Center
Fri 11:55:32 AM 38.5956 -80.2153 259° West 423 487 38,000  Level Indianapolis Center
Fri 11:56:34 AM 38.5750 -80.3558 259° West 416 479 38,000  Level Indianapolis Center
Fri 11:57:36 AM 38.5383 -80.5161 254° West 419 482 38,000  Level Indianapolis Center
Fri 11:58:38 AM 38.5072 -80.6614 255° West 423 487 38,000  Level Indianapolis Center
Fri 11:59:40 AM 38.4733 -80.8053 253° West 422 486 38,000  Level Indianapolis Center
Fri 12:00:42 PM 38.4408 -80.9503 254° West 423 487 38,000  Level Indianapolis Center
Fri 12:01:44 PM 38.4069 -81.0956 253° West 425 489 38,000  Level Indianapolis Center
Fri 12:02:46 PM 38.3733 -81.2411 254° West 425 489 38,000  Level Indianapolis Center
Fri 12:03:48 PM 38.3389 -81.3878 253° West 427 491 38,000  Level Indianapolis Center
Fri 12:04:50 PM 38.3042 -81.5336 253° West 427 491 38,000  Level Indianapolis Center
Fri 12:05:52 PM 38.2633 -81.7094 254° West 429 494 38,000  Level Indianapolis Center
Fri 12:06:54 PM 38.2286 -81.8583 254° West 435 501 38,000  Level Indianapolis Center
Fri 12:07:56 PM 38.1922 -82.0061 253° West 436 502 38,000  Level Indianapolis Center
Fri 12:08:58 PM 38.1561 -82.1553 253° West 439 505 38,000  Level Indianapolis Center
Fri 12:10:00 PM 38.1219 -82.3008 253° West 432 497 38,000  Level Indianapolis Center
Fri 12:11:02 PM 38.0833 -82.4589 253° West 413 475 38,000  Level Indianapolis Center
Fri 12:12:04 PM 38.0492 -82.5992 253° West 414 476 38,000  Level Indianapolis Center
Fri 12:13:06 PM 38.0139 -82.7403 252° West 419 482 38,000  Level Indianapolis Center
Fri 12:14:08 PM 37.9786 -82.8822 253° West 423 487 38,000  Level Indianapolis Center
Fri 12:15:10 PM 37.9439 -83.0256 253° West 426 490 38,000  Level Indianapolis Center
Fri 12:16:12 PM 37.9025 -83.1906 252° West 423 487 38,000  Level Indianapolis Center
Fri 12:17:14 PM 37.8661 -83.3308 252° West 420 483 38,000  Level Indianapolis Center
Fri 12:18:16 PM 37.8311 -83.4717 253° West 421 484 38,000  Level Indianapolis Center
Fri 12:19:18 PM 37.7758 -83.6044 242° Southwest 432 497 38,000  Level Indianapolis Center
Fri 12:20:20 PM 37.7197 -83.7339 241° Southwest 423 487 38,000  Level Indianapolis Center
Fri 12:21:22 PM 37.6539 -83.8875 242° Southwest 425 489 38,000  Level Indianapolis Center
Fri 12:22:25 PM 37.5981 -84.0167 241° Southwest 421 484 38,000  Level Indianapolis Center
Fri 12:23:27 PM 37.5478 -84.1489 244° Southwest 419 482 38,000  Level Indianapolis Center
Fri 12:24:29 PM 37.4964 -84.2800 244° Southwest 418 481 38,000  Level Indianapolis Center
Fri 12:25:31 PM 37.4453 -84.4106 244° Southwest 415 478 38,000  Level Indianapolis Center
Fri 12:26:33 PM 37.3842 -84.5631 243° Southwest 419 482 38,000  Level Indianapolis Center
Fri 12:27:35 PM 37.3594 -84.6936 257° West 396 456 38,000  Level Indianapolis Center
Fri 12:28:37 PM 37.3356 -84.8275 257° West 408 470 38,000  Level Indianapolis Center
Fri 12:29:39 PM 37.2961 -84.9581 249° West 402 463 38,000  Level Indianapolis Center
Fri 12:30:41 PM 37.2556 -85.0881 249° West 400 460 38,000  Level Indianapolis Center
Fri 12:31:43 PM 37.2067 -85.2369 248° West 396 456 38,000  Level Indianapolis Center
Fri 12:32:45 PM 37.1672 -85.3633 249° West 391 450 38,000  Level Indianapolis Center
Fri 12:33:47 PM 37.1256 -85.4892 247° West 391 450 38,000  Level Indianapolis Center
Fri 12:34:49 PM 37.0831 -85.6178 248° West 396 456 38,000  Level Indianapolis Center
Fri 12:35:51 PM 37.0411 -85.7444 248° West 392 451 38,000  Level Indianapolis Center
Fri 12:36:53 PM 36.9989 -85.8714 247° West 391 450 38,000  Level Indianapolis Center
Fri 12:37:55 PM 36.9575 -85.9989 248° West 392 451 38,000  Level Indianapolis Center
Fri 12:38:57 PM 36.9069 -86.1486 247° West 397 457 38,000  Level Indianapolis Center
Fri 12:39:59 PM 36.8642 -86.2750 247° West 395 455 38,000  Level Indianapolis Center
Fri 12:40:44 PM 36.8361 -86.3622 248° West 404 465 38,000  Level Memphis Center
Fri 12:41:44 PM 36.7944 -86.4886 248° West 404 465 38,000  Level Memphis Center
Fri 12:42:44 PM 36.7522 -86.6125 247° West 398 458 38,000  Level Memphis Center
Fri 12:43:44 PM 36.7083 -86.7414 247° West 404 465 38,000  Level Memphis Center
Fri 12:44:44 PM 36.6661 -86.8675 247° West 404 465 38,000  Level Memphis Center
Fri 12:45:44 PM 36.6236 -86.9933 247° West 404 465 38,000  Level Memphis Center
Fri 12:46:44 PM 36.5811 -87.1192 247° West 404 465 38,000  Level Memphis Center
Fri 12:47:44 PM 36.5325 -87.2553 246° West 399 459 38,000  Level Memphis Center
Fri 12:48:44 PM 36.4875 -87.3808 246° West 405 466 38,000  Level Memphis Center
Fri 12:49:44 PM 36.4428 -87.5064 246° West 405 466 38,000  Level Memphis Center
Fri 12:50:44 PM 36.3997 -87.6342 247° West 405 466 38,000  Level Memphis Center
Fri 12:51:44 PM 36.3544 -87.7622 246° West 405 466 38,000  Level Memphis Center
Fri 12:52:44 PM 36.3092 -87.8897 246° West 405 466 38,000  Level Memphis Center
Fri 12:53:44 PM 36.2636 -88.0172 246° West 410 472 38,000  Level Memphis Center
Fri 12:54:44 PM 36.2258 -88.1211 246° West 410 472 38,000  Level Memphis Center
Fri 12:55:44 PM 36.1783 -88.2561 246° West 405 466 38,000  Level Memphis Center
Fri 12:56:44 PM 36.1325 -88.3833 246° West 405 466 38,000  Level Memphis Center
Fri 12:57:44 PM 36.0864 -88.5078 245° Southwest 405 466 38,000  Level Memphis Center
Fri 12:58:44 PM 36.0381 -88.6319 244° Southwest 405 466 38,000  Level Memphis Center
Fri 12:59:44 PM 35.9919 -88.7614 246° West 405 466 38,000  Level Memphis Center
Fri 01:00:44 PM 35.9414 -88.8981 245° Southwest 405 466 38,000  Level Memphis Center
Fri 01:01:44 PM 35.8928 -89.0244 245° Southwest 405 466 38,000  Level Memphis Center
Fri 01:02:44 PM 35.8461 -89.1508 246° West 405 466 38,000  Level Memphis Center
Fri 01:03:44 PM 35.7994 -89.2794 246° West 405 466 38,000  Level Memphis Center
Fri 01:04:44 PM 35.7525 -89.4056 245° Southwest 405 466 38,000  Level Memphis Center
Fri 01:05:44 PM 35.7033 -89.5339 245° Southwest 405 466 38,000  Level Memphis Center
Fri 01:06:44 PM 35.6644 -89.6569 249° West 396 456 38,000  Level Memphis Center
Fri 01:07:44 PM 35.6172 -89.7825 245° Southwest 401 461 38,000  Level Memphis Center
Fri 01:08:44 PM 35.5719 -89.9078 246° West 401 461 38,000  Level Memphis Center
Fri 01:09:44 PM 35.5242 -90.0356 245° Southwest 407 468 38,000  Level Memphis Center
Fri 01:10:44 PM 35.4744 -90.1633 244° Southwest 407 468 38,000  Level Memphis Center
Fri 01:11:44 PM 35.4328 -90.2756 246° West 407 468 38,000  Level Memphis Center
Fri 01:12:44 PM 35.3850 -90.3978 244° Southwest 407 468 38,000  Level Memphis Center
Fri 01:13:44 PM 35.3369 -90.5200 244° Southwest 401 461 38,000  Level Memphis Center
Fri 01:14:44 PM 35.2908 -90.6444 246° West 401 461 38,000  Level Memphis Center
Fri 01:15:44 PM 35.2444 -90.7614 244° Southwest 396 456 38,000  Level Memphis Center
Fri 01:16:44 PM 35.1983 -90.8806 245° Southwest 396 456 38,000  Level Memphis Center
Fri 01:17:44 PM 35.1539 -90.9944 245° Southwest 385 443 38,000  Level Memphis Center
Fri 01:18:44 PM 35.1053 -91.1161 244° Southwest 385 443 38,000  Level Memphis Center
Fri 01:19:44 PM 35.0544 -91.2425 244° Southwest 378 435 38,000  Level Memphis Center
Fri 01:20:44 PM 35.0075 -91.3611 244° Southwest 378 435 38,000  Level Memphis Center
Fri 01:21:44 PM 34.9650 -91.4644 243° Southwest 384 442 38,000  Level Memphis Center
Fri 01:22:44 PM 34.9181 -91.5803 244° Southwest 384 442 38,000  Level Memphis Center
Fri 01:23:44 PM 34.8706 -91.7139 247° West 391 450 38,000  Level Memphis Center
Fri 01:24:44 PM 34.8258 -91.8142 242° Southwest 384 442 38,000  Level Memphis Center
Fri 01:25:44 PM 34.7742 -91.9347 242° Southwest 384 442 38,000  Level Memphis Center
Fri 01:26:44 PM 34.7289 -92.0528 245° Southwest 389 448 38,000  Level Memphis Center
Fri 01:27:44 PM 34.6814 -92.1706 244° Southwest 394 453 38,000  Level Memphis Center
Fri 01:28:44 PM 34.6461 -92.2958 251° West 394 453 38,000  Level Memphis Center
Fri 01:29:44 PM 34.6147 -92.4189 253° West 388 447 38,000  Level Memphis Center
Fri 01:30:44 PM 34.5814 -92.5417 252° West 388 447 38,000  Level Memphis Center
Fri 01:31:44 PM 34.5478 -92.6694 252° West 388 447 38,000  Level Memphis Center
Fri 01:32:44 PM 34.5164 -92.7919 253° West 388 447 38,000  Level Memphis Center
Fri 01:33:44 PM 34.4806 -92.9119 250° West 389 448 38,000  Level Memphis Center
Fri 01:34:44 PM 34.4486 -93.0444 254° West 394 453 38,000  Level Memphis Center
Fri 01:35:44 PM 34.4144 -93.1667 251° West 404 465 38,000  Level Memphis Center
Fri 01:36:44 PM 34.3783 -93.2914 251° West 404 465 38,000  Level Memphis Center
Fri 01:37:44 PM 34.3439 -93.4186 252° West 404 465 38,000  Level Memphis Center
Fri 01:38:12 PM 34.3311 -93.4903 258° West 404 465 38,000  Level Fort Worth Center
Fri 01:39:13 PM 34.2975 -93.6150 252° West 390 449 38,000  Level Fort Worth Center
Fri 01:40:13 PM 34.2614 -93.7397 251° West 385 443 38,000  Level Fort Worth Center
Fri 01:41:13 PM 34.2275 -93.8642 252° West 385 443 38,000  Level Fort Worth Center
Fri 01:42:13 PM 34.1933 -93.9886 252° West 391 450 38,000  Level Fort Worth Center
Fri 01:43:13 PM 34.1569 -94.1106 250° West 391 450 38,000 -500 Level Fort Worth Center
Fri 01:44:13 PM 34.1144 -94.2378 248° West 391 450 37,000 -950 Descending Fort Worth Center
Fri 01:45:13 PM 34.0758 -94.3644 250° West 391 450 36,100 -958 Descending Fort Worth Center
Fri 01:46:12 PM 34.0350 -94.4911 249° West 396 456 35,100 -950 Descending Fort Worth Center
Fri 01:47:13 PM 33.9919 -94.6178 248° West 401 461 34,200 -942 Descending Fort Worth Center
Fri 01:48:13 PM 33.9511 -94.7469 249° West 406 467 33,200 -1,462 Descending Fort Worth Center
Fri 01:49:12 PM 33.9078 -94.8783 248° West 418 481 31,300 -3,150 Descending Fort Worth Center
Fri 01:50:13 PM 33.8625 -95.0147 248° West 424 488 26,900 -3,421 Descending Fort Worth Center
Fri 01:51:13 PM 33.8150 -95.1586 248° West 444 511 24,400 -1,800 Descending Fort Worth Center
Fri 01:52:13 PM 33.7714 -95.2869 248° West 445 512 23,300 -1,100 Descending Fort Worth Center
Fri 01:53:13 PM 33.7317 -95.4106 249° West 421 484 22,200 -1,050 Descending Fort Worth Center
Fri 01:54:13 PM 33.6919 -95.5311 248° West 405 466 21,200 -1,000 Descending Fort Worth Center
Fri 01:55:13 PM 33.6558 -95.6492 250° West 390 449 20,200 -1,008 Descending Fort Worth Center
Fri 01:56:12 PM 33.6139 -95.7697 247° West 390 449 19,200 -1,210 Descending Fort Worth Center
Fri 01:57:12 PM 33.5736 -95.8878 248° West 390 449 17,800 -1,636 Descending Fort Worth Center
Fri 01:58:13 PM 33.5372 -95.9931 248° West 390 449 15,900 -1,884 Descending Fort Worth Center
Fri 01:59:13 PM 33.4967 -96.1183 249° West 383 441 14,000 -950 Descending Fort Worth Center
Fri 02:00:13 PM 33.4603 -96.2183 246° West 371 427 14,000 -50 Level Fort Worth Center
Fri 02:01:13 PM 33.4194 -96.3408 248° West 365 420 13,900 -500 Descending Fort Worth Center
Fri 02:02:13 PM 33.3806 -96.4233 241° Southwest 341 392 13,000 -1,311 Descending Fort Worth Center
Fri 02:03:12 PM 33.3144 -96.5011 225° Southwest 315 362 11,300 -1,450 Descending Fort Worth Center
Fri 02:04:13 PM 33.2625 -96.5639 225° Southwest 304 350 10,100 -1,388 Descending Fort Worth Center
Fri 02:05:13 PM 33.1983 -96.6389 224° Southwest 294 338 8,500 -1,400 Descending Fort Worth Center
Fri 02:06:13 PM 33.1508 -96.7089 231° Southwest 289 333 7,300 -1,000 Descending Fort Worth Center
Fri 02:07:13 PM 33.1681 -96.7931 284° West 246 283 6,500 -1,050 Descending Fort Worth Center
Fri 02:08:13 PM 33.1892 -96.8672 289° West 237 273 5,200 -750 Descending Fort Worth Center
Fri 02:09:13 PM 33.2061 -96.9367 286° West 242 278 5,000 -650 Descending Fort Worth Center
Fri 02:10:13 PM 33.1731 -97.0039 240° Southwest 209 241 3,900 -1,000 Descending Fort Worth Center
Fri 02:11:13 PM 33.1231 -97.0264 201° Southwest 198 228 3,000 -900 Descending Fort Worth Center

Login

Don't have an account? Register now (free) for customized features, flight alerts, and more!